CJT9356 CYQT-CYMX
Flight info
| Callsign | CJT9356 |
|---|---|
| Flight time | N/A |
| Altitude | 350000 |
| Route | CYQT/25 N0462F350 DCT YQT DCT CMX DCT SSM DCT YYB DCT YOW DCT CYMX/06 |
| Aircraft | A306/M-SDE3GILORVW/S |
Departure
| Time | 2026-04-18 23:08 |
|---|---|
| Airport | Thunder Bay International Airport (CYQT) |
Arrival
| Time | N/A |
|---|---|
| Airport | Montreal Mirabel International Airport (CYMX) |
| Time | Latitude | Longitude | Altitude | Speed | Heading |
|---|---|---|---|---|---|
| 2026-04-18 22:58 | 48.37331 | -89.31160 | 660 ft | 0 kts | 121° |
| 2026-04-18 23:02 | 48.37332 | -89.31163 | 660 ft | 3 kts | 121° |
| 2026-04-18 23:02 | 48.37341 | -89.31186 | 659 ft | 3 kts | 121° |
| 2026-04-18 23:02 | 48.37351 | -89.31209 | 658 ft | 3 kts | 121° |
| 2026-04-18 23:02 | 48.37360 | -89.31232 | 658 ft | 3 kts | 121° |
| 2026-04-18 23:03 | 48.37367 | -89.31251 | 659 ft | 0 kts | 121° |
| 2026-04-18 23:04 | 48.37366 | -89.31246 | 659 ft | 3 kts | 120° |
| 2026-04-18 23:04 | 48.37364 | -89.31222 | 659 ft | 1 kts | 81° |
| 2026-04-18 23:05 | 48.37368 | -89.31211 | 660 ft | 3 kts | 60° |
| 2026-04-18 23:05 | 48.37409 | -89.31193 | 661 ft | 10 kts | 0° |
| 2026-04-18 23:05 | 48.37485 | -89.31193 | 660 ft | 10 kts | 4° |
| 2026-04-18 23:05 | 48.37535 | -89.31137 | 662 ft | 9 kts | 56° |
| 2026-04-18 23:06 | 48.37561 | -89.31052 | 662 ft | 11 kts | 68° |
| 2026-04-18 23:06 | 48.37598 | -89.30894 | 665 ft | 21 kts | 70° |
| 2026-04-18 23:06 | 48.37643 | -89.30695 | 664 ft | 18 kts | 87° |
| 2026-04-18 23:06 | 48.37660 | -89.30603 | 664 ft | 0 kts | 356° |
| 2026-04-18 23:07 | 48.37662 | -89.30609 | 663 ft | 1 kts | 317° |
| 2026-04-18 23:07 | 48.37654 | -89.30641 | 662 ft | 7 kts | 246° |
| 2026-04-18 23:07 | 48.37603 | -89.30874 | 665 ft | 54 kts | 250° |
| 2026-04-18 23:07 | 48.37386 | -89.31793 | 662 ft | 130 kts | 250° |
| 2026-04-18 23:08 | 48.36990 | -89.33244 | 1193 ft | 162 kts | 250° |
| 2026-04-18 23:08 | 48.36555 | -89.34786 | 2418 ft | 151 kts | 255° |
| 2026-04-18 23:08 | 48.36111 | -89.36381 | 2833 ft | 186 kts | 238° |
| 2026-04-18 23:08 | 48.34929 | -89.37469 | 3663 ft | 215 kts | 204° |
| 2026-04-18 23:09 | 48.33429 | -89.37909 | 4791 ft | 222 kts | 199° |
| 2026-04-18 23:09 | 48.31903 | -89.38348 | 5874 ft | 224 kts | 204° |
| 2026-04-18 23:09 | 48.30420 | -89.39040 | 6917 ft | 223 kts | 212° |
| 2026-04-18 23:09 | 48.29010 | -89.39996 | 7934 ft | 224 kts | 217° |
| 2026-04-18 23:10 | 48.27549 | -89.40962 | 8979 ft | 235 kts | 212° |
| 2026-04-18 23:10 | 48.25923 | -89.41635 | 9963 ft | 250 kts | 201° |
| 2026-04-18 23:10 | 48.24129 | -89.41729 | 10908 ft | 266 kts | 184° |
| 2026-04-18 23:10 | 48.22313 | -89.41017 | 11850 ft | 281 kts | 168° |
| 2026-04-18 23:11 | 48.20506 | -89.39739 | 12794 ft | 286 kts | 161° |
| 2026-04-18 23:11 | 48.18792 | -89.38247 | 13702 ft | 290 kts | 158° |
| 2026-04-18 23:11 | 48.17069 | -89.36617 | 14532 ft | 293 kts | 156° |
| 2026-04-18 23:11 | 48.15351 | -89.34980 | 15299 ft | 294 kts | 156° |
| 2026-04-18 23:12 | 48.13611 | -89.33341 | 16076 ft | 296 kts | 156° |
| 2026-04-18 23:12 | 48.11854 | -89.31700 | 16851 ft | 298 kts | 156° |
| 2026-04-18 23:12 | 48.10089 | -89.30076 | 17628 ft | 299 kts | 157° |
| 2026-04-18 23:12 | 48.08306 | -89.28457 | 18359 ft | 300 kts | 157° |
| 2026-04-18 23:13 | 48.06509 | -89.26843 | 18991 ft | 302 kts | 157° |
| 2026-04-18 23:13 | 48.04695 | -89.25225 | 19608 ft | 305 kts | 157° |
| 2026-04-18 23:13 | 48.02871 | -89.23601 | 20229 ft | 306 kts | 157° |
| 2026-04-18 23:13 | 48.01053 | -89.21985 | 20845 ft | 308 kts | 157° |
| 2026-04-18 23:14 | 47.99180 | -89.20321 | 21412 ft | 311 kts | 157° |
| 2026-04-18 23:14 | 47.97342 | -89.18688 | 21998 ft | 312 kts | 157° |
| 2026-04-18 23:14 | 47.95462 | -89.17018 | 22587 ft | 314 kts | 157° |
| 2026-04-18 23:14 | 47.93582 | -89.15348 | 23187 ft | 316 kts | 157° |
| 2026-04-18 23:15 | 47.91695 | -89.13666 | 23781 ft | 313 kts | 157° |
| 2026-04-18 23:15 | 47.89819 | -89.11999 | 24252 ft | 315 kts | 158° |
| 2026-04-18 23:15 | 47.87919 | -89.10318 | 24679 ft | 318 kts | 158° |
| 2026-04-18 23:15 | 47.86008 | -89.08632 | 25113 ft | 321 kts | 158° |
| 2026-04-18 23:16 | 47.84084 | -89.06935 | 25589 ft | 322 kts | 158° |
| 2026-04-18 23:16 | 47.82153 | -89.05227 | 26116 ft | 321 kts | 158° |
| 2026-04-18 23:16 | 47.80242 | -89.03536 | 26651 ft | 319 kts | 158° |
| 2026-04-18 23:16 | 47.78368 | -89.01880 | 27126 ft | 318 kts | 158° |
| 2026-04-18 23:17 | 47.76458 | -89.00196 | 27626 ft | 318 kts | 158° |
| 2026-04-18 23:17 | 47.74559 | -88.98523 | 28095 ft | 317 kts | 158° |
| 2026-04-18 23:17 | 47.72657 | -88.96850 | 28569 ft | 317 kts | 159° |
| 2026-04-18 23:17 | 47.70761 | -88.95185 | 29046 ft | 317 kts | 159° |
| 2026-04-18 23:18 | 47.68864 | -88.93520 | 29465 ft | 317 kts | 159° |
| 2026-04-18 23:18 | 47.66961 | -88.91854 | 29853 ft | 319 kts | 159° |
| 2026-04-18 23:18 | 47.65035 | -88.90171 | 30142 ft | 322 kts | 159° |
| 2026-04-18 23:18 | 47.63089 | -88.88471 | 30408 ft | 325 kts | 159° |
| 2026-04-18 23:19 | 47.61133 | -88.86764 | 30675 ft | 328 kts | 159° |
| 2026-04-18 23:19 | 47.59164 | -88.85044 | 30925 ft | 331 kts | 159° |
| 2026-04-18 23:19 | 47.57184 | -88.83316 | 31167 ft | 334 kts | 159° |
| 2026-04-18 23:19 | 47.55175 | -88.81561 | 31449 ft | 336 kts | 159° |
| 2026-04-18 23:20 | 47.53148 | -88.79793 | 31713 ft | 339 kts | 159° |
| 2026-04-18 23:20 | 47.51108 | -88.78016 | 31952 ft | 342 kts | 159° |
| 2026-04-18 23:20 | 47.49035 | -88.76213 | 32191 ft | 345 kts | 159° |
| 2026-04-18 23:20 | 47.46953 | -88.74402 | 32432 ft | 348 kts | 159° |
| 2026-04-18 23:21 | 47.44865 | -88.72590 | 32712 ft | 350 kts | 159° |
| 2026-04-18 23:21 | 47.42755 | -88.70760 | 32941 ft | 353 kts | 159° |
| 2026-04-18 23:21 | 47.40625 | -88.68913 | 33172 ft | 357 kts | 159° |
| 2026-04-18 23:21 | 47.38467 | -88.67044 | 33392 ft | 360 kts | 159° |
| 2026-04-18 23:22 | 47.36292 | -88.65164 | 33537 ft | 366 kts | 159° |
| 2026-04-18 23:22 | 47.34072 | -88.63249 | 33664 ft | 372 kts | 159° |
| 2026-04-18 23:22 | 47.31814 | -88.61302 | 33824 ft | 378 kts | 159° |
| 2026-04-18 23:23 | 47.27203 | -88.57329 | 34050 ft | 389 kts | 159° |
| 2026-04-18 23:23 | 47.24886 | -88.55333 | 34159 ft | 395 kts | 158° |
| 2026-04-18 23:23 | 47.22535 | -88.53137 | 34259 ft | 406 kts | 153° |
| 2026-04-18 23:23 | 47.20312 | -88.50452 | 34368 ft | 420 kts | 144° |
| 2026-04-18 23:24 | 47.18325 | -88.47213 | 34473 ft | 435 kts | 135° |
| 2026-04-18 23:24 | 47.16671 | -88.43393 | 34543 ft | 450 kts | 124° |
| 2026-04-18 23:24 | 47.15466 | -88.39074 | 34633 ft | 465 kts | 113° |
| 2026-04-18 23:25 | 47.13809 | -88.29763 | 34821 ft | 477 kts | 109° |
| 2026-04-18 23:25 | 47.12325 | -88.20160 | 34867 ft | 488 kts | 109° |
| 2026-04-18 23:26 | 47.10776 | -88.10345 | 34900 ft | 498 kts | 109° |
| 2026-04-18 23:26 | 47.09155 | -88.00430 | 34911 ft | 507 kts | 109° |
| 2026-04-18 23:27 | 47.07460 | -87.90242 | 34902 ft | 514 kts | 110° |
| 2026-04-18 23:27 | 47.05765 | -87.80115 | 34909 ft | 516 kts | 110° |
| 2026-04-18 23:28 | 47.04043 | -87.69877 | 34905 ft | 516 kts | 110° |
| 2026-04-18 23:28 | 47.02315 | -87.59671 | 34908 ft | 516 kts | 110° |
| 2026-04-18 23:29 | 47.00573 | -87.49444 | 34903 ft | 515 kts | 110° |
| 2026-04-18 23:29 | 46.98840 | -87.39331 | 34909 ft | 515 kts | 110° |
| 2026-04-18 23:30 | 46.97090 | -87.29183 | 34908 ft | 515 kts | 110° |
| 2026-04-18 23:30 | 46.95326 | -87.19011 | 34908 ft | 515 kts | 111° |
| 2026-04-18 23:31 | 46.93558 | -87.08864 | 34905 ft | 514 kts | 111° |
| 2026-04-18 23:31 | 46.91779 | -86.98720 | 34905 ft | 515 kts | 111° |
| 2026-04-18 23:32 | 46.89997 | -86.88629 | 34902 ft | 515 kts | 111° |
| 2026-04-18 23:32 | 46.88196 | -86.78478 | 34905 ft | 515 kts | 111° |
| 2026-04-18 23:33 | 46.86696 | -86.70059 | 34894 ft | 515 kts | 112° |
| 2026-04-18 23:33 | 46.84885 | -86.59948 | 34903 ft | 514 kts | 112° |
| 2026-04-18 23:34 | 46.83060 | -86.49826 | 34908 ft | 514 kts | 112° |
| 2026-04-18 23:34 | 46.81231 | -86.39736 | 34900 ft | 514 kts | 112° |
| 2026-04-18 23:35 | 46.79392 | -86.29637 | 34892 ft | 514 kts | 112° |
| 2026-04-18 23:35 | 46.77546 | -86.19559 | 34912 ft | 514 kts | 113° |
| 2026-04-18 23:36 | 46.75690 | -86.09490 | 34899 ft | 514 kts | 113° |
| 2026-04-18 23:36 | 46.73824 | -85.99421 | 34901 ft | 514 kts | 113° |
| 2026-04-18 23:37 | 46.71952 | -85.89368 | 34895 ft | 514 kts | 114° |
| 2026-04-18 23:37 | 46.70072 | -85.79322 | 34912 ft | 513 kts | 114° |
| 2026-04-18 23:38 | 46.68195 | -85.69352 | 34913 ft | 513 kts | 114° |
| 2026-04-18 23:38 | 46.66302 | -85.59352 | 34911 ft | 513 kts | 114° |
| 2026-04-18 23:39 | 46.64390 | -85.49302 | 34908 ft | 513 kts | 114° |
| 2026-04-18 23:39 | 46.62477 | -85.39303 | 34907 ft | 513 kts | 114° |
| 2026-04-18 23:40 | 46.60553 | -85.29296 | 34914 ft | 513 kts | 114° |
| 2026-04-18 23:40 | 46.58634 | -85.19367 | 34911 ft | 513 kts | 114° |
| 2026-04-18 23:41 | 46.56694 | -85.09381 | 34908 ft | 512 kts | 115° |
| 2026-04-18 23:41 | 46.54751 | -84.99432 | 34909 ft | 512 kts | 115° |
| 2026-04-18 23:42 | 46.52801 | -84.89495 | 34896 ft | 512 kts | 115° |
| 2026-04-18 23:42 | 46.50840 | -84.79562 | 34881 ft | 512 kts | 115° |
| 2026-04-18 23:43 | 46.48872 | -84.69633 | 34868 ft | 511 kts | 115° |
| 2026-04-18 23:43 | 46.46896 | -84.59721 | 34869 ft | 511 kts | 115° |
| 2026-04-18 23:44 | 46.44915 | -84.49835 | 34871 ft | 511 kts | 115° |
| 2026-04-18 23:44 | 46.42922 | -84.39933 | 34852 ft | 511 kts | 116° |
| 2026-04-18 23:45 | 46.41401 | -84.29739 | 34845 ft | 530 kts | 102° |
| 2026-04-18 23:45 | 46.41244 | -84.19059 | 34859 ft | 536 kts | 97° |
| 2026-04-18 23:46 | 46.41363 | -84.08233 | 34871 ft | 538 kts | 96° |
| 2026-04-18 23:46 | 46.41506 | -83.97395 | 34878 ft | 537 kts | 96° |
| 2026-04-18 23:47 | 46.41607 | -83.86598 | 34887 ft | 535 kts | 97° |
| 2026-04-18 23:47 | 46.41674 | -83.75781 | 34890 ft | 535 kts | 97° |
| 2026-04-18 23:48 | 46.41726 | -83.65010 | 34876 ft | 535 kts | 97° |
| 2026-04-18 23:48 | 46.41769 | -83.54240 | 34841 ft | 535 kts | 98° |
| 2026-04-18 23:49 | 46.41805 | -83.43441 | 34870 ft | 534 kts | 98° |
| 2026-04-18 23:49 | 46.41830 | -83.32743 | 34865 ft | 534 kts | 98° |
| 2026-04-18 23:50 | 46.41845 | -83.21956 | 34864 ft | 534 kts | 98° |
| 2026-04-18 23:50 | 46.41850 | -83.11173 | 34854 ft | 534 kts | 99° |
| 2026-04-18 23:51 | 46.41847 | -83.00496 | 34852 ft | 532 kts | 99° |
| 2026-04-18 23:51 | 46.41832 | -82.89783 | 34831 ft | 532 kts | 99° |
| 2026-04-18 23:52 | 46.41806 | -82.79056 | 34836 ft | 532 kts | 99° |
| 2026-04-18 23:52 | 46.41772 | -82.68354 | 34819 ft | 530 kts | 99° |
| 2026-04-18 23:53 | 46.41726 | -82.57738 | 34821 ft | 529 kts | 99° |
| 2026-04-18 23:53 | 46.41670 | -82.47025 | 34814 ft | 529 kts | 100° |
| 2026-04-18 23:54 | 46.41607 | -82.36421 | 34798 ft | 529 kts | 100° |
| 2026-04-18 23:54 | 46.41534 | -82.25722 | 34801 ft | 527 kts | 101° |
| 2026-04-18 23:55 | 46.41451 | -82.15087 | 34798 ft | 527 kts | 101° |
| 2026-04-18 23:55 | 46.41356 | -82.04559 | 34800 ft | 527 kts | 101° |
| 2026-04-18 23:56 | 46.41253 | -81.93932 | 34753 ft | 527 kts | 101° |
| 2026-04-18 23:56 | 46.41141 | -81.83308 | 34787 ft | 527 kts | 101° |
| 2026-04-18 23:57 | 46.41018 | -81.72675 | 34795 ft | 527 kts | 102° |
| 2026-04-18 23:57 | 46.40885 | -81.62114 | 34796 ft | 527 kts | 102° |
| 2026-04-18 23:58 | 46.40743 | -81.51497 | 34788 ft | 527 kts | 102° |
| 2026-04-18 23:58 | 46.40589 | -81.40848 | 34785 ft | 527 kts | 102° |
| 2026-04-18 23:59 | 46.40427 | -81.30252 | 34780 ft | 527 kts | 102° |
| 2026-04-18 23:59 | 46.40253 | -81.19640 | 34776 ft | 527 kts | 102° |
| 2026-04-19 00:00 | 46.40071 | -81.09039 | 34755 ft | 526 kts | 102° |
| 2026-04-19 00:00 | 46.39883 | -80.98543 | 34767 ft | 524 kts | 103° |
| 2026-04-19 00:01 | 46.39682 | -80.87992 | 34763 ft | 524 kts | 103° |
| 2026-04-19 00:01 | 46.39470 | -80.77420 | 34753 ft | 524 kts | 103° |
| 2026-04-19 00:02 | 46.39252 | -80.66895 | 34751 ft | 522 kts | 103° |
| 2026-04-19 00:02 | 46.39026 | -80.56387 | 34752 ft | 521 kts | 103° |
| 2026-04-19 00:03 | 46.38787 | -80.45879 | 34748 ft | 521 kts | 103° |
| 2026-04-19 00:03 | 46.38538 | -80.35383 | 34751 ft | 521 kts | 103° |
| 2026-04-19 00:04 | 46.38280 | -80.24898 | 34751 ft | 521 kts | 104° |
| 2026-04-19 00:04 | 46.38014 | -80.14451 | 34732 ft | 522 kts | 104° |
| 2026-04-19 00:05 | 46.37739 | -80.03972 | 34733 ft | 521 kts | 104° |
| 2026-04-19 00:05 | 46.37453 | -79.93478 | 34728 ft | 521 kts | 104° |
| 2026-04-19 00:06 | 46.37154 | -79.82953 | 34731 ft | 524 kts | 106° |
| 2026-04-19 00:06 | 46.36846 | -79.72403 | 34731 ft | 525 kts | 106° |
| 2026-04-19 00:07 | 46.36531 | -79.61832 | 34707 ft | 525 kts | 106° |
| 2026-04-19 00:07 | 46.36209 | -79.51343 | 34615 ft | 524 kts | 107° |
| 2026-04-19 00:08 | 46.35198 | -79.41147 | 34709 ft | 490 kts | 122° |
| 2026-04-19 00:08 | 46.33144 | -79.31844 | 34701 ft | 485 kts | 125° |
| 2026-04-19 00:09 | 46.30902 | -79.22666 | 34708 ft | 483 kts | 126° |
| 2026-04-19 00:09 | 46.28638 | -79.13497 | 34644 ft | 483 kts | 124° |
| 2026-04-19 00:10 | 46.26388 | -79.04340 | 34724 ft | 483 kts | 124° |
| 2026-04-19 00:10 | 46.24161 | -78.95237 | 34732 ft | 484 kts | 124° |
| 2026-04-19 00:11 | 46.21913 | -78.86067 | 34730 ft | 484 kts | 124° |
| 2026-04-19 00:11 | 46.19662 | -78.76922 | 34649 ft | 483 kts | 123° |
| 2026-04-19 00:12 | 46.17403 | -78.67793 | 34725 ft | 482 kts | 122° |
| 2026-04-19 00:12 | 46.15142 | -78.58688 | 34729 ft | 481 kts | 122° |
| 2026-04-19 00:13 | 46.12877 | -78.49608 | 34727 ft | 481 kts | 122° |
| 2026-04-19 00:13 | 46.10603 | -78.40529 | 34665 ft | 481 kts | 122° |
| 2026-04-19 00:14 | 46.08333 | -78.31509 | 34710 ft | 483 kts | 122° |
| 2026-04-19 00:14 | 46.06040 | -78.22423 | 34707 ft | 483 kts | 122° |
| 2026-04-19 00:15 | 46.03734 | -78.13313 | 34704 ft | 483 kts | 122° |
| 2026-04-19 00:15 | 46.01424 | -78.04224 | 34709 ft | 483 kts | 122° |
| 2026-04-19 00:16 | 45.99104 | -77.95151 | 34693 ft | 485 kts | 121° |
| 2026-04-19 00:16 | 45.96764 | -77.86025 | 34707 ft | 486 kts | 121° |
| 2026-04-19 00:17 | 45.94419 | -77.76904 | 34709 ft | 486 kts | 121° |
| 2026-04-19 00:17 | 45.92083 | -77.67851 | 34704 ft | 486 kts | 121° |
| 2026-04-19 00:18 | 45.89727 | -77.58768 | 34683 ft | 485 kts | 122° |
| 2026-04-19 00:18 | 45.87755 | -77.51203 | 34689 ft | 486 kts | 121° |
| 2026-04-19 00:19 | 45.85376 | -77.42108 | 34692 ft | 487 kts | 121° |
| 2026-04-19 00:19 | 45.82602 | -77.31532 | 34631 ft | 487 kts | 121° |
| 2026-04-19 00:20 | 45.80603 | -77.23944 | 34685 ft | 486 kts | 121° |
| 2026-04-19 00:20 | 45.78227 | -77.14946 | 34680 ft | 485 kts | 121° |
| 2026-04-19 00:21 | 45.75825 | -77.05895 | 34681 ft | 485 kts | 121° |
| 2026-04-19 00:21 | 45.73426 | -76.96886 | 34682 ft | 484 kts | 121° |
| 2026-04-19 00:22 | 45.71013 | -76.87869 | 34677 ft | 485 kts | 120° |
| 2026-04-19 00:22 | 45.68590 | -76.78846 | 34678 ft | 487 kts | 121° |
| 2026-04-19 00:23 | 45.66153 | -76.69799 | 34674 ft | 487 kts | 121° |
| 2026-04-19 00:23 | 45.64935 | -76.65286 | 34541 ft | 484 kts | 121° |
| 2026-04-19 00:23 | 45.63725 | -76.60801 | 33848 ft | 483 kts | 121° |
| 2026-04-19 00:23 | 45.62507 | -76.56311 | 32848 ft | 484 kts | 120° |
| 2026-04-19 00:24 | 45.61288 | -76.51830 | 31926 ft | 485 kts | 120° |
| 2026-04-19 00:24 | 45.60064 | -76.47336 | 31367 ft | 482 kts | 121° |
| 2026-04-19 00:24 | 45.58845 | -76.42862 | 31209 ft | 485 kts | 121° |
| 2026-04-19 00:25 | 45.56391 | -76.33896 | 30772 ft | 481 kts | 121° |
| 2026-04-19 00:25 | 45.55187 | -76.29496 | 29797 ft | 483 kts | 121° |
| 2026-04-19 00:25 | 45.53941 | -76.24970 | 28509 ft | 486 kts | 121° |
| 2026-04-19 00:25 | 45.52707 | -76.20506 | 26983 ft | 493 kts | 120° |
| 2026-04-19 00:26 | 45.51435 | -76.15920 | 25473 ft | 502 kts | 119° |
| 2026-04-19 00:26 | 45.50150 | -76.11284 | 24493 ft | 501 kts | 118° |
| 2026-04-19 00:26 | 45.48883 | -76.06689 | 23965 ft | 498 kts | 118° |
| 2026-04-19 00:26 | 45.47613 | -76.02090 | 23718 ft | 497 kts | 118° |
| 2026-04-19 00:27 | 45.46345 | -75.97510 | 23517 ft | 495 kts | 118° |
| 2026-04-19 00:27 | 45.45186 | -75.92908 | 23064 ft | 496 kts | 112° |
| 2026-04-19 00:27 | 45.44686 | -75.88004 | 21916 ft | 505 kts | 96° |
| 2026-04-19 00:27 | 45.45018 | -75.83006 | 20890 ft | 508 kts | 84° |
| 2026-04-19 00:28 | 45.45680 | -75.78099 | 19978 ft | 502 kts | 83° |
| 2026-04-19 00:28 | 45.46365 | -75.73254 | 19039 ft | 496 kts | 83° |
| 2026-04-19 00:28 | 45.47028 | -75.68513 | 18217 ft | 489 kts | 83° |
| 2026-04-19 00:28 | 45.47676 | -75.63793 | 17279 ft | 483 kts | 84° |
| 2026-04-19 00:29 | 45.48310 | -75.59113 | 16385 ft | 476 kts | 84° |
| 2026-04-19 00:29 | 45.48931 | -75.54505 | 15534 ft | 470 kts | 84° |
| 2026-04-19 00:29 | 45.49538 | -75.49965 | 14729 ft | 463 kts | 84° |
| 2026-04-19 00:29 | 45.50135 | -75.45486 | 13915 ft | 457 kts | 84° |
| 2026-04-19 00:30 | 45.50723 | -75.41043 | 13028 ft | 454 kts | 84° |
| 2026-04-19 00:30 | 45.51303 | -75.36659 | 12195 ft | 447 kts | 84° |
| 2026-04-19 00:30 | 45.51876 | -75.32317 | 11374 ft | 441 kts | 84° |
| 2026-04-19 00:30 | 45.52437 | -75.28039 | 10572 ft | 436 kts | 84° |
| 2026-04-19 00:31 | 45.52986 | -75.23841 | 10049 ft | 426 kts | 84° |
| 2026-04-19 00:31 | 45.53514 | -75.19819 | 9650 ft | 404 kts | 85° |
| 2026-04-19 00:31 | 45.54017 | -75.16007 | 9221 ft | 379 kts | 85° |
| 2026-04-19 00:31 | 45.54485 | -75.12432 | 8789 ft | 357 kts | 86° |
| 2026-04-19 00:32 | 45.54928 | -75.09024 | 8364 ft | 340 kts | 86° |
| 2026-04-19 00:32 | 45.55344 | -75.05792 | 8053 ft | 322 kts | 87° |
| 2026-04-19 00:32 | 45.55739 | -75.02750 | 7983 ft | 303 kts | 86° |
| 2026-04-19 00:32 | 45.56111 | -74.99815 | 8000 ft | 299 kts | 87° |
| 2026-04-19 00:33 | 45.56476 | -74.96903 | 8009 ft | 298 kts | 87° |
| 2026-04-19 00:33 | 45.56843 | -74.93992 | 8005 ft | 298 kts | 87° |
| 2026-04-19 00:33 | 45.57212 | -74.91083 | 8007 ft | 297 kts | 88° |
| 2026-04-19 00:33 | 45.57579 | -74.88180 | 8004 ft | 296 kts | 88° |
| 2026-04-19 00:34 | 45.58316 | -74.82367 | 8012 ft | 298 kts | 88° |
| 2026-04-19 00:34 | 45.58683 | -74.79462 | 8007 ft | 297 kts | 88° |
| 2026-04-19 00:34 | 45.59047 | -74.76581 | 8012 ft | 297 kts | 88° |
| 2026-04-19 00:35 | 45.59415 | -74.73663 | 8006 ft | 296 kts | 88° |
| 2026-04-19 00:35 | 45.59779 | -74.70764 | 8010 ft | 297 kts | 88° |
| 2026-04-19 00:35 | 45.60144 | -74.67855 | 8017 ft | 297 kts | 88° |
| 2026-04-19 00:35 | 45.60507 | -74.64958 | 8013 ft | 297 kts | 88° |
| 2026-04-19 00:36 | 45.60866 | -74.62084 | 8025 ft | 297 kts | 88° |
| 2026-04-19 00:36 | 45.61228 | -74.59182 | 7985 ft | 297 kts | 87° |
| 2026-04-19 00:36 | 45.61588 | -74.56271 | 8014 ft | 297 kts | 86° |
| 2026-04-19 00:36 | 45.61950 | -74.53358 | 8021 ft | 298 kts | 87° |
| 2026-04-19 00:37 | 45.62012 | -74.50483 | 8014 ft | 281 kts | 113° |
| 2026-04-19 00:37 | 45.61134 | -74.48201 | 8024 ft | 249 kts | 148° |
| 2026-04-19 00:37 | 45.59684 | -74.47237 | 8031 ft | 222 kts | 184° |